Gaines Landing, Arkansas
Current Conditions -  °F | °C
As of 5:53 AM on Friday 28 Nov 2014 (Local Time) from KGLH Reporting Station
Clear Clear  
Wind Chill: -3°   Ceiling: Unl
Heat Index:   Visibility: 9mi
Dew Point: -2°   Wind: 7mph
Humidity: 85%   Direction: 140°SE
Pressure: 30.42"   Gusts: NA
Location:  33.3324°N, 91.3183°W
Report Text: KGLH 281153Z AUTO 14006KT 9SM CLR 01/M02 A3042 RMK AO2 SLP310 T00061017 10006 21017 57005
Loading
Personal Weather Stations






























Interactive Weather Map New forecast layout! Learn more

10-Day Weather Forecast

Advertisements
Track Severe Weather on mobile